Terminal Aerodrome Forecast
Issued by NWS Amarillo, TX

Home | Current Version | Previous Version | Text Only | Print | Product List | Glossary On
Versions: 1 2 3 4 5 6 7 8 9 10 11 12 13 14 15 16
165
FTUS44 KAMA 100520
TAFGUY
TAF
KGUY 100520Z 1006/1106 VRB06KT P6SM BKN200
     FM100900 VRB06KT 6SM BR BKN010
     FM101500 21008KT P6SM FEW200
     FM102200 22012KT P6SM SKC=

USA.gov is the U.S. government's official web portal to all federal, state and local government web resources and services.